Terminal Aerodrome Forecast
Issued by NWS

Home | Current Version | Previous Version | Text Only | Print | Product List | Glossary On
Versions: 1 2 3 4 5 6 7 8 9 10 11 12 13 14 15 16 17 18 19 20 21 22
201
FTUS43 KILX 282339
TAFCMI
TAF
KCMI 282339Z 2900/2924 09010KT 6SM -SHRA BR SCT025 OVC080
      TEMPO 2900/2903 3SM SHRA BR OVC025
     FM290300 07010KT 6SM BR VCSH OVC020
     FM290600 05010KT 5SM -SHRA BKN007 OVC015
     FM291000 06015G19KT 5SM SHRA BR VCTS OVC010CB=

USA.gov is the U.S. government's official web portal to all federal, state and local government web resources and services.